KEOE

Newberry County Airport

Newberry, South Carolina, USA
METAR KEOE 141335Z AUTO 00000KT 10SM CLR 24/22 A3007 RMK AO2
Observed Flight Rules
Aug-14 @ 13:35 UTC (9 minutes ago) Visual Flight Rules
Visibility Clouds
10 miles
  • Clear skies
Temperatures Readings
Current 24°C / 75°F
Dewpoint 22°C / 72°F
Humidity 89%
Altimeter 30.07" Hg
Pressure 1018 hPa
Elevation 174
METAR KEOE 141335Z AUTO 00000KT 10SM CLR 24/22 A3007 RMK AO2
Observed Flight Rules
Aug-14 @ 13:35 UTC
(9 minutes ago)
VFR
Clouds
  • Clear skies
Temperature Dewpoint
24°C / 75°F 22°C / 72°F
Humidity Altimeter Pressure
89% 30.07" Hg 1018 hPa